首页
METAR-TAF:

METAR-TAF

机场 :

薩圖馬雷, 罗马尼亚

纬度: 47-48N, 经度: 022-53E, 海拔: 123米

当前天气观测

该预报发布于27分钟前的13:00 UTC
风速4节,风向西
温度 29°C
湿度 52%
气压 1015 hPa
能见度10公里或以上
少量云层高于4000英尺, 积雨云.
散云层高于4400英尺

METAR: LRSM 181300Z 27004KT 9999 FEW040CB SCT044 29/18 Q1015

时间: 16:27 (13:27 UTC)

预报

该预报发布于2小时和27分钟前的11:00 UTC
预报有效从18日的 12点(UTC)到 18日的 21点(UTC)
风速4节,风向多变
能见度10公里或以上
散云层高于4000英尺
短暂存在
从 18日的 13点(UTC)到 18日的 16点(UTC)
风速15节,风向多变,有时为25节阵风
能見度: 5000
散云层高于4000英尺, 积雨云.
雷暴, 小雨

TAF: LRSM 181100Z 1812/1821 VRB04KT 9999 SCT040 TEMPO 1813/1816 VRB15G25KT 5000 -TSRA SCT040CB

超过4000个机场的气象观测和天气预报(METAR&TAF报告)。

可查询的气象台以黄色和红色小点在地图上表示。

将鼠标移到小点上方,可查看气象台名称。

然后点击查看天气观测和预报。

如需切换地图:点击带黑十字的绿色按钮放大地图;点击带横线的绿色按钮缩小地图;或者点击绿色箭头查看邻近地区的地图。


METAR-TAF: